sensor_id;sensor_type;location;lat;lon;timestamp;pressure;altitude;pressure_sealevel;temperature;humidity
67015;BME280;1033;52.560;13.374;2023-06-10T00:01:08;101077.44;;;15.20;93.08
67015;BME280;1033;52.560;13.374;2023-06-10T00:03:38;101062.59;;;15.16;93.29
67015;BME280;1033;52.560;13.374;2023-06-10T00:06:09;101066.84;;;15.12;93.81
67015;BME280;1033;52.560;13.374;2023-06-10T00:08:38;101070.72;;;15.05;94.23
67015;BME280;1033;52.560;13.374;2023-06-10T00:11:07;101079.41;;;15.13;93.92
67015;BME280;1033;52.560;13.374;2023-06-10T00:13:36;101066.69;;;15.07;94.03
67015;BME280;1033;52.560;13.374;2023-06-10T00:16:05;101067.69;;;15.13;94.00
67015;BME280;1033;52.560;13.374;2023-06-10T00:18:36;101071.06;;;15.27;93.43
67015;BME280;1033;52.560;13.374;2023-06-10T00:21:06;101075.94;;;15.25;92.92
67015;BME280;1033;52.560;13.374;2023-06-10T00:23:35;101070.88;;;15.10;93.89
67015;BME280;1033;52.560;13.374;2023-06-10T00:26:06;101061.53;;;15.17;93.34
67015;BME280;1033;52.560;13.374;2023-06-10T00:28:35;101064.88;;;15.01;94.38
67015;BME280;1033;52.560;13.374;2023-06-10T00:31:04;101066.38;;;14.97;94.66
67015;BME280;1033;52.560;13.374;2023-06-10T00:33:33;101077.75;;;14.94;94.85
67015;BME280;1033;52.560;13.374;2023-06-10T00:36:04;101054.59;;;14.85;95.97
67015;BME280;1033;52.560;13.374;2023-06-10T00:38:34;101051.19;;;14.90;95.43
67015;BME280;1033;52.560;13.374;2023-06-10T00:41:03;101059.19;;;14.85;95.71
67015;BME280;1033;52.560;13.374;2023-06-10T00:43:32;101058.41;;;14.77;96.32
67015;BME280;1033;52.560;13.374;2023-06-10T00:46:01;101066.06;;;14.69;96.84
67015;BME280;1033;52.560;13.374;2023-06-10T00:48:32;101062.72;;;14.67;97.25
67015;BME280;1033;52.560;13.374;2023-06-10T00:51:01;101062.44;;;14.57;97.70
67015;BME280;1033;52.560;13.374;2023-06-10T00:53:32;101065.31;;;14.62;97.42
67015;BME280;1033;52.560;13.374;2023-06-10T00:56:01;101064.06;;;14.58;97.93
67015;BME280;1033;52.560;13.374;2023-06-10T00:58:30;101058.41;;;14.59;98.02
67015;BME280;1033;52.560;13.374;2023-06-10T01:00:59;101060.28;;;14.59;97.76
67015;BME280;1033;52.560;13.374;2023-06-10T01:03:29;101061.63;;;14.50;97.97
67015;BME280;1033;52.560;13.374;2023-06-10T01:06:06;101068.75;;;14.51;98.68
67015;BME280;1033;52.560;13.374;2023-06-10T01:08:47;101070.94;;;14.42;99.28
67015;BME280;1033;52.560;13.374;2023-06-10T01:11:23;101072.00;;;14.41;99.43
67015;BME280;1033;52.560;13.374;2023-06-10T01:13:56;101066.75;;;14.40;99.57
67015;BME280;1033;52.560;13.374;2023-06-10T01:16:27;101070.78;;;14.37;99.36
67015;BME280;1033;52.560;13.374;2023-06-10T01:18:56;101077.13;;;14.49;98.92
67015;BME280;1033;52.560;13.374;2023-06-10T01:21:27;101077.97;;;14.50;98.83
67015;BME280;1033;52.560;13.374;2023-06-10T01:23:56;101081.59;;;14.44;99.06
67015;BME280;1033;52.560;13.374;2023-06-10T01:26:30;101085.63;;;14.34;99.87
67015;BME280;1033;52.560;13.374;2023-06-10T01:29:05;101082.50;;;14.38;99.58
67015;BME280;1033;52.560;13.374;2023-06-10T01:31:41;101076.84;;;14.32;100.00
67015;BME280;1033;52.560;13.374;2023-06-10T01:34:16;101078.31;;;14.28;100.00
67015;BME280;1033;52.560;13.374;2023-06-10T01:36:48;101074.63;;;14.23;100.00
67015;BME280;1033;52.560;13.374;2023-06-10T01:39:20;101076.50;;;14.22;100.00
67015;BME280;1033;52.560;13.374;2023-06-10T01:41:49;101079.91;;;14.18;100.00
67015;BME280;1033;52.560;13.374;2023-06-10T01:44:19;101077.00;;;14.13;100.00
67015;BME280;1033;52.560;13.374;2023-06-10T01:46:49;101073.16;;;14.20;100.00
67015;BME280;1033;52.560;13.374;2023-06-10T01:49:18;101079.50;;;14.14;100.00
67015;BME280;1033;52.560;13.374;2023-06-10T01:51:48;101065.50;;;14.42;100.00
67015;BME280;1033;52.560;13.374;2023-06-10T01:54:17;101081.81;;;14.42;98.87
67015;BME280;1033;52.560;13.374;2023-06-10T01:56:46;101080.47;;;14.26;100.00
67015;BME280;1033;52.560;13.374;2023-06-10T01:59:15;101080.53;;;14.45;99.95
67015;BME280;1033;52.560;13.374;2023-06-10T02:01:44;101082.72;;;14.29;99.92
67015;BME280;1033;52.560;13.374;2023-06-10T02:04:13;101084.50;;;14.17;100.00
67015;BME280;1033;52.560;13.374;2023-06-10T02:06:42;101083.69;;;14.17;100.00
67015;BME280;1033;52.560;13.374;2023-06-10T02:09:12;101077.84;;;14.13;100.00
67015;BME280;1033;52.560;13.374;2023-06-10T02:11:41;101080.16;;;14.10;100.00
67015;BME280;1033;52.560;13.374;2023-06-10T02:14:11;101092.56;;;13.99;100.00
67015;BME280;1033;52.560;13.374;2023-06-10T02:16:40;101080.03;;;13.98;100.00
67015;BME280;1033;52.560;13.374;2023-06-10T02:19:09;101092.38;;;14.01;100.00
67015;BME280;1033;52.560;13.374;2023-06-10T02:21:39;101090.94;;;13.98;100.00
67015;BME280;1033;52.560;13.374;2023-06-10T02:24:09;101093.91;;;13.90;100.00
67015;BME280;1033;52.560;13.374;2023-06-10T02:26:40;101099.41;;;13.83;100.00
67015;BME280;1033;52.560;13.374;2023-06-10T02:29:09;101096.03;;;13.88;100.00
67015;BME280;1033;52.560;13.374;2023-06-10T02:31:39;101100.00;;;14.17;100.00
67015;BME280;1033;52.560;13.374;2023-06-10T02:34:09;101098.84;;;14.00;100.00
67015;BME280;1033;52.560;13.374;2023-06-10T02:36:38;101093.81;;;14.03;100.00
67015;BME280;1033;52.560;13.374;2023-06-10T02:39:08;101099.09;;;13.98;100.00
67015;BME280;1033;52.560;13.374;2023-06-10T02:41:38;101098.28;;;14.22;100.00
67015;BME280;1033;52.560;13.374;2023-06-10T02:44:08;101094.72;;;14.22;100.00
67015;BME280;1033;52.560;13.374;2023-06-10T02:46:37;101094.66;;;14.04;100.00
67015;BME280;1033;52.560;13.374;2023-06-10T02:49:07;101099.09;;;13.98;100.00
67015;BME280;1033;52.560;13.374;2023-06-10T02:51:36;101092.66;;;13.86;100.00
67015;BME280;1033;52.560;13.374;2023-06-10T02:54:05;101095.38;;;13.86;100.00
67015;BME280;1033;52.560;13.374;2023-06-10T02:56:35;101097.06;;;13.87;100.00
67015;BME280;1033;52.560;13.374;2023-06-10T02:59:08;101099.09;;;13.98;100.00
67015;BME280;1033;52.560;13.374;2023-06-10T03:01:37;101094.69;;;13.97;100.00
67015;BME280;1033;52.560;13.374;2023-06-10T03:04:09;101094.69;;;13.97;100.00
67015;BME280;1033;52.560;13.374;2023-06-10T03:06:42;101098.44;;;14.03;100.00
67015;BME280;1033;52.560;13.374;2023-06-10T03:09:19;101095.06;;;14.07;100.00
67015;BME280;1033;52.560;13.374;2023-06-10T03:11:51;101096.91;;;14.13;100.00
67015;BME280;1033;52.560;13.374;2023-06-10T03:14:21;101098.25;;;14.54;99.88
67015;BME280;1033;52.560;13.374;2023-06-10T03:16:52;101103.78;;;14.16;100.00
67015;BME280;1033;52.560;13.374;2023-06-10T03:19:23;101103.56;;;14.17;100.00
67015;BME280;1033;52.560;13.374;2023-06-10T03:22:09;101095.28;;;14.30;100.00
67015;BME280;1033;52.560;13.374;2023-06-10T03:24:55;101092.31;;;14.39;100.00
67015;BME280;1033;52.560;13.374;2023-06-10T03:27:25;101091.94;;;14.28;100.00
67015;BME280;1033;52.560;13.374;2023-06-10T03:30:01;101102.66;;;14.23;100.00
67015;BME280;1033;52.560;13.374;2023-06-10T03:32:30;101106.88;;;14.19;100.00
67015;BME280;1033;52.560;13.374;2023-06-10T03:35:00;101115.31;;;14.43;99.03
67015;BME280;1033;52.560;13.374;2023-06-10T03:37:31;101107.84;;;14.31;100.00
67015;BME280;1033;52.560;13.374;2023-06-10T03:40:00;101104.97;;;14.26;100.00
67015;BME280;1033;52.560;13.374;2023-06-10T03:42:31;101112.84;;;14.34;100.00
67015;BME280;1033;52.560;13.374;2023-06-10T03:45:01;101117.44;;;14.41;99.65
67015;BME280;1033;52.560;13.374;2023-06-10T03:47:34;101108.06;;;14.61;98.74
67015;BME280;1033;52.560;13.374;2023-06-10T03:50:09;101109.22;;;14.90;95.37
67015;BME280;1033;52.560;13.374;2023-06-10T03:52:40;101112.84;;;14.84;95.68
67015;BME280;1033;52.560;13.374;2023-06-10T03:55:10;101122.22;;;14.70;96.10
67015;BME280;1033;52.560;13.374;2023-06-10T03:57:44;101119.03;;;14.48;98.04
67015;BME280;1033;52.560;13.374;2023-06-10T04:00:15;101117.16;;;14.49;98.02
67015;BME280;1033;52.560;13.374;2023-06-10T04:02:45;101114.22;;;14.50;98.17
67015;BME280;1033;52.560;13.374;2023-06-10T04:05:23;101120.00;;;14.60;97.73
67015;BME280;1033;52.560;13.374;2023-06-10T04:07:52;101112.81;;;14.66;97.19
67015;BME280;1033;52.560;13.374;2023-06-10T04:10:21;101117.47;;;14.84;96.33
67015;BME280;1033;52.560;13.374;2023-06-10T04:12:50;101116.81;;;15.06;94.37
67015;BME280;1033;52.560;13.374;2023-06-10T04:15:21;101117.84;;;14.87;94.93
67015;BME280;1033;52.560;13.374;2023-06-10T04:17:50;101120.34;;;14.89;95.08
67015;BME280;1033;52.560;13.374;2023-06-10T04:20:23;101122.72;;;15.03;94.00
67015;BME280;1033;52.560;13.374;2023-06-10T04:22:52;101124.38;;;15.04;94.22
67015;BME280;1033;52.560;13.374;2023-06-10T04:25:21;101125.28;;;14.98;94.19
67015;BME280;1033;52.560;13.374;2023-06-10T04:27:51;101116.56;;;15.26;93.23
67015;BME280;1033;52.560;13.374;2023-06-10T04:30:22;101118.34;;;15.39;92.00
67015;BME280;1033;52.560;13.374;2023-06-10T04:32:51;101121.50;;;15.36;91.54
67015;BME280;1033;52.560;13.374;2023-06-10T04:35:20;101121.66;;;15.22;92.55
67015;BME280;1033;52.560;13.374;2023-06-10T04:37:49;101123.72;;;15.27;92.29
67015;BME280;1033;52.560;13.374;2023-06-10T04:40:18;101119.97;;;15.40;91.90
67015;BME280;1033;52.560;13.374;2023-06-10T04:42:47;101130.28;;;15.38;91.34
67015;BME280;1033;52.560;13.374;2023-06-10T04:45:17;101126.50;;;15.20;92.50
67015;BME280;1033;52.560;13.374;2023-06-10T04:47:47;101134.22;;;15.42;91.46
67015;BME280;1033;52.560;13.374;2023-06-10T04:50:16;101139.84;;;15.47;91.26
67015;BME280;1033;52.560;13.374;2023-06-10T04:52:45;101137.22;;;15.58;90.21
67015;BME280;1033;52.560;13.374;2023-06-10T04:55:15;101141.06;;;15.51;90.51
67015;BME280;1033;52.560;13.374;2023-06-10T04:57:44;101134.56;;;15.52;90.46
67015;BME280;1033;52.560;13.374;2023-06-10T05:00:13;101147.72;;;15.55;90.68
67015;BME280;1033;52.560;13.374;2023-06-10T05:02:42;101151.28;;;16.03;88.23
67015;BME280;1033;52.560;13.374;2023-06-10T05:05:14;101141.69;;;16.13;86.96
67015;BME280;1033;52.560;13.374;2023-06-10T05:07:42;101151.91;;;16.05;86.91
67015;BME280;1033;52.560;13.374;2023-06-10T05:10:11;101158.25;;;16.29;85.59
67015;BME280;1033;52.560;13.374;2023-06-10T05:12:40;101161.38;;;16.56;83.86
67015;BME280;1033;52.560;13.374;2023-06-10T05:15:10;101164.34;;;16.31;85.04
67015;BME280;1033;52.560;13.374;2023-06-10T05:17:39;101160.06;;;16.35;84.83
67015;BME280;1033;52.560;13.374;2023-06-10T05:20:09;101152.34;;;16.56;84.29
67015;BME280;1033;52.560;13.374;2023-06-10T05:22:39;101157.66;;;16.80;82.46
67015;BME280;1033;52.560;13.374;2023-06-10T05:25:08;101155.28;;;16.95;81.45
67015;BME280;1033;52.560;13.374;2023-06-10T05:27:38;101163.66;;;18.04;75.94
67015;BME280;1033;52.560;13.374;2023-06-10T05:30:11;101175.09;;;18.46;74.11
67015;BME280;1033;52.560;13.374;2023-06-10T05:33:02;101166.09;;;18.79;71.89
67015;BME280;1033;52.560;13.374;2023-06-10T05:35:32;101171.50;;;18.57;72.39
67015;BME280;1033;52.560;13.374;2023-06-10T05:38:03;101174.09;;;18.07;74.72
67015;BME280;1033;52.560;13.374;2023-06-10T05:40:32;101174.59;;;18.04;75.75
67015;BME280;1033;52.560;13.374;2023-06-10T05:43:01;101166.59;;;18.31;74.37
67015;BME280;1033;52.560;13.374;2023-06-10T05:45:30;101168.03;;;18.33;73.58
67015;BME280;1033;52.560;13.374;2023-06-10T05:47:59;101167.38;;;18.43;73.94
67015;BME280;1033;52.560;13.374;2023-06-10T05:50:28;101164.75;;;18.64;73.07
67015;BME280;1033;52.560;13.374;2023-06-10T05:52:57;101166.09;;;18.95;71.97
67015;BME280;1033;52.560;13.374;2023-06-10T05:55:27;101167.41;;;19.09;70.95
67015;BME280;1033;52.560;13.374;2023-06-10T05:57:59;101162.94;;;18.87;70.75
67015;BME280;1033;52.560;13.374;2023-06-10T06:00:28;101171.16;;;18.53;72.82
67015;BME280;1033;52.560;13.374;2023-06-10T06:02:57;101163.88;;;18.31;73.82
67015;BME280;1033;52.560;13.374;2023-06-10T06:05:26;101170.19;;;18.31;74.00
67015;BME280;1033;52.560;13.374;2023-06-10T06:07:55;101171.16;;;18.53;73.14
67015;BME280;1033;52.560;13.374;2023-06-10T06:10:26;101167.72;;;18.46;73.45
67015;BME280;1033;52.560;13.374;2023-06-10T06:12:55;101174.44;;;18.39;73.29
67015;BME280;1033;52.560;13.374;2023-06-10T06:15:24;101176.03;;;18.35;73.51
67015;BME280;1033;52.560;13.374;2023-06-10T06:17:53;101170.53;;;18.35;73.76
67015;BME280;1033;52.560;13.374;2023-06-10T06:20:23;101188.19;;;18.55;72.66
67015;BME280;1033;52.560;13.374;2023-06-10T06:22:52;101189.13;;;18.78;72.32
67015;BME280;1033;52.560;13.374;2023-06-10T06:25:21;101194.69;;;18.83;71.10
67015;BME280;1033;52.560;13.374;2023-06-10T06:27:52;101192.19;;;18.81;71.08
67015;BME280;1033;52.560;13.374;2023-06-10T06:30:21;101191.84;;;18.94;70.78
67015;BME280;1033;52.560;13.374;2023-06-10T06:32:50;101194.06;;;19.14;70.26
67015;BME280;1033;52.560;13.374;2023-06-10T06:35:19;101204.59;;;19.22;69.44
67015;BME280;1033;52.560;13.374;2023-06-10T06:37:48;101205.94;;;19.36;69.07
67015;BME280;1033;52.560;13.374;2023-06-10T06:40:22;101197.59;;;19.48;68.28
67015;BME280;1033;52.560;13.374;2023-06-10T06:42:52;101203.38;;;19.68;67.86
67015;BME280;1033;52.560;13.374;2023-06-10T06:45:29;101205.84;;;19.48;67.65
67015;BME280;1033;52.560;13.374;2023-06-10T06:47:58;101201.59;;;19.40;68.51
67015;BME280;1033;52.560;13.374;2023-06-10T06:50:27;101200.88;;;19.45;68.13
67015;BME280;1033;52.560;13.374;2023-06-10T06:52:56;101216.34;;;19.73;67.56
67015;BME280;1033;52.560;13.374;2023-06-10T06:55:25;101215.88;;;19.81;66.96
67015;BME280;1033;52.560;13.374;2023-06-10T06:57:56;101219.34;;;19.93;66.40
67015;BME280;1033;52.560;13.374;2023-06-10T07:00:24;101219.53;;;20.08;66.32
67015;BME280;1033;52.560;13.374;2023-06-10T07:02:54;101214.59;;;20.10;65.92
67015;BME280;1033;52.560;13.374;2023-06-10T07:05:23;101215.47;;;20.16;65.72
67015;BME280;1033;52.560;13.374;2023-06-10T07:07:52;101214.22;;;20.28;65.67
67015;BME280;1033;52.560;13.374;2023-06-10T07:10:22;101215.16;;;20.61;64.33
67015;BME280;1033;52.560;13.374;2023-06-10T07:12:52;101223.22;;;21.04;62.89
67015;BME280;1033;52.560;13.374;2023-06-10T07:15:23;101228.16;;;21.34;61.24
67015;BME280;1033;52.560;13.374;2023-06-10T07:17:53;101217.97;;;21.40;61.36
67015;BME280;1033;52.560;13.374;2023-06-10T07:20:23;101220.44;;;21.78;59.45
67015;BME280;1033;52.560;13.374;2023-06-10T07:22:52;101220.84;;;21.60;60.67
67015;BME280;1033;52.560;13.374;2023-06-10T07:25:21;101224.44;;;21.60;61.07
67015;BME280;1033;52.560;13.374;2023-06-10T07:27:50;101231.00;;;21.96;59.46
67015;BME280;1033;52.560;13.374;2023-06-10T07:30:19;101239.34;;;22.32;58.94
67015;BME280;1033;52.560;13.374;2023-06-10T07:32:49;101234.19;;;22.56;58.08
67015;BME280;1033;52.560;13.374;2023-06-10T07:35:19;101237.22;;;22.54;57.81
67015;BME280;1033;52.560;13.374;2023-06-10T07:37:48;101235.25;;;22.39;58.64
67015;BME280;1033;52.560;13.374;2023-06-10T07:40:17;101237.28;;;22.84;57.91
67015;BME280;1033;52.560;13.374;2023-06-10T07:42:46;101241.09;;;23.29;56.47
67015;BME280;1033;52.560;13.374;2023-06-10T07:45:15;101240.56;;;23.52;54.76
67015;BME280;1033;52.560;13.374;2023-06-10T07:47:44;101246.13;;;23.07;55.76
67015;BME280;1033;52.560;13.374;2023-06-10T07:50:15;101247.19;;;23.31;55.87
67015;BME280;1033;52.560;13.374;2023-06-10T07:52:44;101239.97;;;23.65;54.59
67015;BME280;1033;52.560;13.374;2023-06-10T07:55:13;101245.28;;;23.26;55.15
67015;BME280;1033;52.560;13.374;2023-06-10T07:57:42;101240.59;;;23.12;56.04
67015;BME280;1033;52.560;13.374;2023-06-10T08:00:11;101239.22;;;22.79;56.83
67015;BME280;1033;52.560;13.374;2023-06-10T08:02:40;101248.88;;;22.81;57.22
67015;BME280;1033;52.560;13.374;2023-06-10T08:05:10;101239.50;;;23.03;56.41
67015;BME280;1033;52.560;13.374;2023-06-10T08:07:41;101247.22;;;22.70;57.23
67015;BME280;1033;52.560;13.374;2023-06-10T08:10:10;101241.69;;;22.80;57.27
67015;BME280;1033;52.560;13.374;2023-06-10T08:12:39;101246.66;;;22.83;56.20
67015;BME280;1033;52.560;13.374;2023-06-10T08:15:09;101245.22;;;22.66;57.25
67015;BME280;1033;52.560;13.374;2023-06-10T08:17:38;101245.00;;;22.92;56.30
67015;BME280;1033;52.560;13.374;2023-06-10T08:20:08;101256.06;;;22.92;56.49
67015;BME280;1033;52.560;13.374;2023-06-10T08:22:37;101260.72;;;23.43;55.51
67015;BME280;1033;52.560;13.374;2023-06-10T08:25:09;101259.06;;;23.52;55.44
67015;BME280;1033;52.560;13.374;2023-06-10T08:27:38;101258.72;;;23.73;54.50
67015;BME280;1033;52.560;13.374;2023-06-10T08:30:08;101268.69;;;23.74;54.47
67015;BME280;1033;52.560;13.374;2023-06-10T08:32:38;101276.47;;;23.57;54.75
67015;BME280;1033;52.560;13.374;2023-06-10T08:35:07;101270.91;;;23.67;54.48
67015;BME280;1033;52.560;13.374;2023-06-10T08:37:38;101269.56;;;23.55;55.43
67015;BME280;1033;52.560;13.374;2023-06-10T08:40:10;101270.94;;;23.62;54.59
67015;BME280;1033;52.560;13.374;2023-06-10T08:42:43;101268.19;;;23.47;54.80
67015;BME280;1033;52.560;13.374;2023-06-10T08:45:19;101277.31;;;23.22;55.86
67015;BME280;1033;52.560;13.374;2023-06-10T08:47:50;101275.38;;;22.98;56.22
67015;BME280;1033;52.560;13.374;2023-06-10T08:50:21;101280.88;;;22.98;55.84
67015;BME280;1033;52.560;13.374;2023-06-10T08:52:54;101281.66;;;22.68;57.03
67015;BME280;1033;52.560;13.374;2023-06-10T08:55:29;101278.56;;;22.49;57.32
67015;BME280;1033;52.560;13.374;2023-06-10T08:58:00;101286.53;;;22.30;58.57
67015;BME280;1033;52.560;13.374;2023-06-10T09:00:32;101275.25;;;22.52;58.05
67015;BME280;1033;52.560;13.374;2023-06-10T09:03:01;101280.25;;;22.50;57.69
67015;BME280;1033;52.560;13.374;2023-06-10T09:05:34;101276.66;;;22.54;57.94
67015;BME280;1033;52.560;13.374;2023-06-10T09:08:05;101273.28;;;22.37;58.55
67015;BME280;1033;52.560;13.374;2023-06-10T09:10:36;101277.59;;;22.08;59.24
67015;BME280;1033;52.560;13.374;2023-06-10T09:13:05;101278.16;;;22.10;59.87
67015;BME280;1033;52.560;13.374;2023-06-10T09:15:34;101280.28;;;21.93;60.06
67015;BME280;1033;52.560;13.374;2023-06-10T09:18:03;101277.25;;;21.94;60.16
67015;BME280;1033;52.560;13.374;2023-06-10T09:20:32;101286.84;;;21.87;60.13
67015;BME280;1033;52.560;13.374;2023-06-10T09:23:02;101292.94;;;21.47;63.30
67015;BME280;1033;52.560;13.374;2023-06-10T09:25:39;101283.44;;;21.28;66.92
67015;BME280;1033;52.560;13.374;2023-06-10T09:28:14;101290.66;;;20.75;70.76
67015;BME280;1033;52.560;13.374;2023-06-10T09:30:44;101285.53;;;20.57;73.23
67015;BME280;1033;52.560;13.374;2023-06-10T09:33:14;101282.13;;;20.50;73.67
67015;BME280;1033;52.560;13.374;2023-06-10T09:35:47;101283.16;;;20.44;75.28
67015;BME280;1033;52.560;13.374;2023-06-10T09:38:21;101292.28;;;20.49;77.71
67015;BME280;1033;52.560;13.374;2023-06-10T09:40:53;101293.84;;;20.18;78.36
67015;BME280;1033;52.560;13.374;2023-06-10T09:43:22;101296.59;;;20.18;78.63
67015;BME280;1033;52.560;13.374;2023-06-10T09:45:51;101289.44;;;20.17;80.77
67015;BME280;1033;52.560;13.374;2023-06-10T09:48:21;101287.50;;;20.39;80.63
67015;BME280;1033;52.560;13.374;2023-06-10T09:50:51;101285.97;;;20.49;79.20
67015;BME280;1033;52.560;13.374;2023-06-10T09:53:21;101280.06;;;20.62;78.17
67015;BME280;1033;52.560;13.374;2023-06-10T09:55:52;101278.34;;;20.56;76.19
67015;BME280;1033;52.560;13.374;2023-06-10T09:58:34;101281.34;;;20.54;77.59
67015;BME280;1033;52.560;13.374;2023-06-10T10:01:08;101280.84;;;20.57;78.66
67015;BME280;1033;52.560;13.374;2023-06-10T10:03:48;101276.09;;;20.53;79.02
67015;BME280;1033;52.560;13.374;2023-06-10T10:06:21;101275.34;;;20.57;80.36
67015;BME280;1033;52.560;13.374;2023-06-10T10:08:51;101278.75;;;20.69;81.94
67015;BME280;1033;52.560;13.374;2023-06-10T10:11:22;101279.13;;;20.78;81.28
67015;BME280;1033;52.560;13.374;2023-06-10T10:13:54;101273.22;;;20.91;78.90
67015;BME280;1033;52.560;13.374;2023-06-10T10:16:27;101286.25;;;21.06;78.26
67015;BME280;1033;52.560;13.374;2023-06-10T10:19:07;101289.03;;;21.11;78.05
67015;BME280;1033;52.560;13.374;2023-06-10T10:21:43;101291.59;;;21.17;79.22
67015;BME280;1033;52.560;13.374;2023-06-10T10:24:17;101289.97;;;21.21;79.62
67015;BME280;1033;52.560;13.374;2023-06-10T10:26:49;101298.91;;;21.34;78.36
67015;BME280;1033;52.560;13.374;2023-06-10T10:29:23;101294.19;;;21.29;78.63
67015;BME280;1033;52.560;13.374;2023-06-10T10:31:54;101288.91;;;21.22;80.18
67015;BME280;1033;52.560;13.374;2023-06-10T10:34:29;101293.03;;;21.20;80.80
67015;BME280;1033;52.560;13.374;2023-06-10T10:36:59;101294.09;;;21.19;80.73
67015;BME280;1033;52.560;13.374;2023-06-10T10:39:28;101275.03;;;21.12;81.10
67015;BME280;1033;52.560;13.374;2023-06-10T10:42:00;101275.84;;;21.13;76.58
67015;BME280;1033;52.560;13.374;2023-06-10T10:44:31;101280.59;;;21.17;74.27
67015;BME280;1033;52.560;13.374;2023-06-10T10:47:04;101268.28;;;21.25;72.03
67015;BME280;1033;52.560;13.374;2023-06-10T10:49:37;101271.38;;;21.34;68.10
67015;BME280;1033;52.560;13.374;2023-06-10T10:52:11;101272.53;;;21.43;65.75
67015;BME280;1033;52.560;13.374;2023-06-10T10:54:46;101266.00;;;21.54;62.65
67015;BME280;1033;52.560;13.374;2023-06-10T10:57:17;101255.53;;;21.56;64.29
67015;BME280;1033;52.560;13.374;2023-06-10T10:59:53;101257.31;;;21.72;64.11
67015;BME280;1033;52.560;13.374;2023-06-10T11:02:35;101250.16;;;21.76;63.88
67015;BME280;1033;52.560;13.374;2023-06-10T11:05:08;101241.25;;;21.59;65.38
67015;BME280;1033;52.560;13.374;2023-06-10T11:07:38;101233.50;;;21.56;64.41
67015;BME280;1033;52.560;13.374;2023-06-10T11:10:09;101231.75;;;21.87;64.55
67015;BME280;1033;52.560;13.374;2023-06-10T11:12:50;101235.25;;;22.39;62.84
67015;BME280;1033;52.560;13.374;2023-06-10T11:15:22;101230.03;;;22.53;62.32
67015;BME280;1033;52.560;13.374;2023-06-10T11:18:14;101240.88;;;22.75;60.46
67015;BME280;1033;52.560;13.374;2023-06-10T11:20:56;101228.72;;;22.81;63.97
67015;BME280;1033;52.560;13.374;2023-06-10T11:23:43;101238.38;;;23.14;62.67
67015;BME280;1033;52.560;13.374;2023-06-10T11:26:20;101233.41;;;23.16;64.11
67015;BME280;1033;52.560;13.374;2023-06-10T11:29:07;101238.66;;;23.27;60.71
67015;BME280;1033;52.560;13.374;2023-06-10T11:31:48;101238.66;;;23.17;61.32
67015;BME280;1033;52.560;13.374;2023-06-10T11:34:26;101239.75;;;23.11;61.30
67015;BME280;1033;52.560;13.374;2023-06-10T11:36:57;101251.91;;;22.80;63.09
67015;BME280;1033;52.560;13.374;2023-06-10T11:39:27;101246.59;;;22.63;64.66
67015;BME280;1033;52.560;13.374;2023-06-10T11:41:57;101248.88;;;23.12;64.94
67015;BME280;1033;52.560;13.374;2023-06-10T11:44:29;101246.63;;;23.24;64.73
67015;BME280;1033;52.560;13.374;2023-06-10T11:47:01;101244.41;;;23.56;63.81
67015;BME280;1033;52.560;13.374;2023-06-10T11:49:30;101246.09;;;23.47;62.78
67015;BME280;1033;52.560;13.374;2023-06-10T11:52:03;101254.91;;;23.39;62.99
67015;BME280;1033;52.560;13.374;2023-06-10T11:54:32;101248.84;;;23.52;62.60
67015;BME280;1033;52.560;13.374;2023-06-10T11:57:02;101250.44;;;23.73;63.19
67015;BME280;1033;52.560;13.374;2023-06-10T11:59:32;101255.09;;;23.88;64.18
67015;BME280;1033;52.560;13.374;2023-06-10T12:02:02;101254.16;;;24.18;62.68
67015;BME280;1033;52.560;13.374;2023-06-10T12:04:31;101253.00;;;24.29;61.32
67015;BME280;1033;52.560;13.374;2023-06-10T12:07:00;101252.63;;;24.46;59.10
67015;BME280;1033;52.560;13.374;2023-06-10T12:09:30;101247.84;;;24.56;58.74
67015;BME280;1033;52.560;13.374;2023-06-10T12:12:02;101249.44;;;24.67;56.89
67015;BME280;1033;52.560;13.374;2023-06-10T12:14:51;101247.00;;;25.00;56.88
67015;BME280;1033;52.560;13.374;2023-06-10T12:17:35;101248.41;;;25.31;55.68
67015;BME280;1033;52.560;13.374;2023-06-10T12:20:07;101243.38;;;25.33;54.24
67015;BME280;1033;52.560;13.374;2023-06-10T12:22:37;101237.91;;;25.52;54.16
67015;BME280;1033;52.560;13.374;2023-06-10T12:25:08;101244.91;;;25.97;52.25
67015;BME280;1033;52.560;13.374;2023-06-10T12:27:39;101229.81;;;26.08;49.45
67015;BME280;1033;52.560;13.374;2023-06-10T12:30:10;101242.00;;;26.31;47.68
67015;BME280;1033;52.560;13.374;2023-06-10T12:32:40;101236.97;;;26.33;44.21
67015;BME280;1033;52.560;13.374;2023-06-10T12:35:11;101233.38;;;26.51;44.48
67015;BME280;1033;52.560;13.374;2023-06-10T12:37:41;101233.72;;;26.82;44.17
67015;BME280;1033;52.560;13.374;2023-06-10T12:40:11;101228.16;;;26.82;44.41
67015;BME280;1033;52.560;13.374;2023-06-10T12:42:40;101226.06;;;26.93;44.77
67015;BME280;1033;52.560;13.374;2023-06-10T12:45:11;101223.78;;;27.13;44.04
67015;BME280;1033;52.560;13.374;2023-06-10T12:47:41;101220.75;;;26.96;44.42
67015;BME280;1033;52.560;13.374;2023-06-10T12:50:10;101211.44;;;27.19;44.37
67015;BME280;1033;52.560;13.374;2023-06-10T12:52:40;101206.53;;;27.30;44.37
67015;BME280;1033;52.560;13.374;2023-06-10T12:55:10;101207.16;;;27.41;44.43
67015;BME280;1033;52.560;13.374;2023-06-10T12:57:48;101204.06;;;27.29;45.55
67015;BME280;1033;52.560;13.374;2023-06-10T13:00:20;101206.75;;;27.34;45.93
67015;BME280;1033;52.560;13.374;2023-06-10T13:02:50;101201.16;;;27.20;46.81
67015;BME280;1033;52.560;13.374;2023-06-10T13:05:19;101198.28;;;27.25;46.40
67015;BME280;1033;52.560;13.374;2023-06-10T13:07:49;101197.97;;;27.40;46.46